Time;durP1;ratioP1;P1;durP2;ratioP2;P2;SDS_P1;SDS_P2;PMS_P1;PMS_P2;Temp;Humidity;BMP_temperature;BMP_pressure;BME280_temperature;BME280_humidity;BME280_pressure;Samples;Min_cycle;Max_cycle;Signal;HPM_P1;HPM_P2
2021/01/07 00:02:14;;;;;;;24.50;16.52;;;;;;;;;;6185681;23;20099;-78
2021/01/07 00:04:40;;;;;;;24.02;16.90;;;;;;;;;;6212993;23;20021;-78
2021/01/07 00:07:10;;;;;;;20.90;15.50;;;;;;;;;;6211391;23;20396;-78
2021/01/07 00:09:36;;;;;;;21.20;15.90;;;;;;;;;;6210294;23;20052;-78
2021/01/07 00:12:02;;;;;;;21.55;16.50;;;;;;;;;;6211126;23;20048;-78
2021/01/07 00:14:28;;;;;;;25.35;17.38;;;;;;;;;;6212921;23;20337;-79
2021/01/07 00:16:54;;;;;;;20.58;15.52;;;;;;;;;;6213074;23;20473;-79
2021/01/07 00:19:20;;;;;;;20.48;14.57;;;;;;;;;;6212340;23;20032;-79
2021/01/07 00:21:46;;;;;;;21.45;15.15;;;;;;;;;;6213335;23;20100;-80
2021/01/07 00:24:13;;;;;;;23.23;16.25;;;;;;;;;;6213398;23;20055;-79
2021/01/07 00:26:39;;;;;;;19.00;13.95;;;;;;;;;;6213710;23;20020;-80
2021/01/07 00:29:06;;;;;;;18.10;14.02;;;;;;;;;;6213933;23;20103;-79
2021/01/07 00:31:35;;;;;;;20.65;14.98;;;;;;;;;;6212455;23;20017;-82
2021/01/07 00:34:02;;;;;;;17.52;14.43;;;;;;;;;;6213665;23;20025;-81
2021/01/07 00:36:28;;;;;;;19.27;14.07;;;;;;;;;;6212598;23;20368;-79
2021/01/07 00:38:54;;;;;;;21.25;13.80;;;;;;;;;;6213165;23;20156;-80
2021/01/07 00:41:21;;;;;;;19.13;13.48;;;;;;;;;;6212908;23;20021;-80
2021/01/07 00:43:50;;;;;;;17.08;13.27;;;;;;;;;;6212880;23;20020;-77
2021/01/07 00:46:17;;;;;;;18.33;13.10;;;;;;;;;;6213340;23;20473;-78
2021/01/07 00:48:43;;;;;;;20.90;13.50;;;;;;;;;;6213038;23;20100;-79
2021/01/07 00:51:10;;;;;;;17.27;12.52;;;;;;;;;;6214228;23;20077;-79
2021/01/07 00:53:36;;;;;;;16.90;12.32;;;;;;;;;;6214166;23;20440;-79
2021/01/07 00:56:03;;;;;;;16.88;12.27;;;;;;;;;;6212630;23;20055;-79
2021/01/07 00:58:29;;;;;;;16.80;12.15;;;;;;;;;;6213661;23;22253;-79
2021/01/07 01:00:57;;;;;;;17.35;12.05;;;;;;;;;;6214294;23;20028;-80
2021/01/07 01:03:23;;;;;;;18.00;13.25;;;;;;;;;;6213017;23;20396;-79
2021/01/07 01:05:49;;;;;;;14.80;11.57;;;;;;;;;;6214020;23;20052;-78
2021/01/07 01:08:17;;;;;;;16.83;11.75;;;;;;;;;;6213632;23;20337;-78
2021/01/07 01:10:43;;;;;;;16.98;11.48;;;;;;;;;;6212254;23;20095;-78
2021/01/07 01:13:09;;;;;;;17.23;12.50;;;;;;;;;;6212914;23;20096;-79
2021/01/07 01:15:35;;;;;;;17.50;11.52;;;;;;;;;;6212803;23;20072;-80
2021/01/07 01:18:02;;;;;;;15.48;10.25;;;;;;;;;;6215558;23;20020;-79
2021/01/07 01:20:28;;;;;;;14.88;10.77;;;;;;;;;;6214104;23;20070;-77
2021/01/07 01:22:54;;;;;;;16.52;10.80;;;;;;;;;;6212856;23;20023;-78
2021/01/07 01:25:20;;;;;;;15.57;10.52;;;;;;;;;;6213006;23;20060;-78
2021/01/07 01:27:46;;;;;;;17.08;10.82;;;;;;;;;;6212525;23;20031;-77
2021/01/07 01:30:14;;;;;;;14.70;10.68;;;;;;;;;;6212781;23;20032;-78
2021/01/07 01:32:40;;;;;;;17.60;11.45;;;;;;;;;;6213050;23;20071;-76
2021/01/07 01:35:08;;;;;;;16.52;10.73;;;;;;;;;;6211200;23;20091;-82
2021/01/07 01:37:34;;;;;;;13.43;9.65;;;;;;;;;;6213480;23;20100;-79
2021/01/07 01:40:07;;;;;;;14.07;9.80;;;;;;;;;;6214590;23;20059;-80
2021/01/07 01:42:33;;;;;;;;;;;;;;;;;;6213160;23;20864;-81
2021/01/07 01:45:02;;;;;;;12.68;9.70;;;;;;;;;;6212970;23;19915;-80
2021/01/07 01:47:29;;;;;;;13.38;9.02;;;;;;;;;;6212735;23;20111;-79
2021/01/07 01:49:55;;;;;;;12.05;8.77;;;;;;;;;;6184997;23;20100;-80
2021/01/07 01:52:25;;;;;;;12.85;9.57;;;;;;;;;;6213022;23;20381;-80
2021/01/07 01:54:51;;;;;;;12.55;9.35;;;;;;;;;;6213169;23;20062;-78
2021/01/07 01:57:19;;;;;;;13.25;9.05;;;;;;;;;;6213524;23;20025;-77
2021/01/07 01:59:45;;;;;;;12.60;8.38;;;;;;;;;;6214463;23;20028;-79
2021/01/07 02:02:12;;;;;;;11.82;8.80;;;;;;;;;;6214590;23;20021;-79
2021/01/07 02:04:38;;;;;;;12.55;9.10;;;;;;;;;;6215465;23;20046;-79
2021/01/07 02:07:06;;;;;;;12.90;9.63;;;;;;;;;;6216327;23;20091;-79
2021/01/07 02:09:36;;;;;;;13.38;9.43;;;;;;;;;;6214506;23;20024;-79
2021/01/07 02:12:02;;;;;;;13.15;8.95;;;;;;;;;;6215297;23;20048;-78
2021/01/07 02:14:28;;;;;;;10.57;8.00;;;;;;;;;;6214449;23;20433;-82
2021/01/07 02:16:54;;;;;;;10.43;8.60;;;;;;;;;;6215595;23;20031;-79
2021/01/07 02:19:24;;;;;;;11.05;8.02;;;;;;;;;;6213155;23;20101;-79
2021/01/07 02:21:50;;;;;;;13.25;8.82;;;;;;;;;;6214587;23;20501;-81
2021/01/07 02:24:18;;;;;;;12.23;8.93;;;;;;;;;;6213545;23;20124;-81
2021/01/07 02:26:44;;;;;;;11.55;7.28;;;;;;;;;;6214360;23;20051;-82
2021/01/07 02:29:12;;;;;;;10.23;7.57;;;;;;;;;;6213795;23;20021;-84
2021/01/07 02:31:39;;;;;;;11.00;7.97;;;;;;;;;;6214664;23;20062;-81
2021/01/07 02:34:06;;;;;;;13.40;8.68;;;;;;;;;;6214521;23;20017;-81
2021/01/07 02:36:32;;;;;;;11.43;8.15;;;;;;;;;;6213111;23;20056;-81
2021/01/07 02:38:58;;;;;;;10.60;7.30;;;;;;;;;;6214651;23;20035;-81
2021/01/07 02:41:25;;;;;;;10.75;8.00;;;;;;;;;;6188066;23;20068;-81
2021/01/07 02:43:51;;;;;;;10.57;7.97;;;;;;;;;;6214324;23;20389;-81
2021/01/07 02:46:18;;;;;;;8.95;7.13;;;;;;;;;;6213045;23;20071;-79
2021/01/07 02:48:44;;;;;;;12.85;8.00;;;;;;;;;;6215256;23;20027;-79
2021/01/07 02:51:11;;;;;;;10.18;7.60;;;;;;;;;;6214410;23;20027;-80
2021/01/07 02:53:37;;;;;;;11.57;7.85;;;;;;;;;;6215201;23;20393;-79
2021/01/07 02:56:03;;;;;;;9.48;7.32;;;;;;;;;;6213222;23;20385;-80
2021/01/07 02:58:37;;;;;;;10.57;7.38;;;;;;;;;;6213526;23;20027;-79
2021/01/07 03:01:05;;;;;;;10.00;6.90;;;;;;;;;;6213691;23;20024;-80
2021/01/07 03:03:31;;;;;;;10.13;7.38;;;;;;;;;;6213658;23;20016;-82
2021/01/07 03:05:57;;;;;;;8.48;6.13;;;;;;;;;;6214104;23;20024;-82
2021/01/07 03:08:23;;;;;;;10.35;6.72;;;;;;;;;;6214068;23;20017;-83
2021/01/07 03:10:49;;;;;;;9.82;7.75;;;;;;;;;;6214318;23;20506;-77
2021/01/07 03:13:15;;;;;;;8.77;7.22;;;;;;;;;;6213627;23;20032;-78
2021/01/07 03:15:42;;;;;;;9.15;7.07;;;;;;;;;;6212687;23;20062;-76
2021/01/07 03:18:08;;;;;;;9.68;6.82;;;;;;;;;;6213656;23;20508;-78
2021/01/07 03:20:37;;;;;;;10.55;6.65;;;;;;;;;;6214443;23;20028;-79
2021/01/07 03:23:04;;;;;;;8.40;6.20;;;;;;;;;;6187877;23;20500;-78
2021/01/07 03:25:33;;;;;;;12.73;6.85;;;;;;;;;;6213973;23;20349;-77
2021/01/07 03:28:00;;;;;;;7.80;6.13;;;;;;;;;;6214069;23;20095;-77
2021/01/07 03:30:26;;;;;;;10.55;6.85;;;;;;;;;;6213750;23;20392;-80
2021/01/07 03:32:52;;;;;;;7.70;6.07;;;;;;;;;;6214586;23;20035;-80
2021/01/07 03:35:18;;;;;;;9.63;5.88;;;;;;;;;;6212883;23;20352;-80
2021/01/07 03:37:44;;;;;;;10.95;6.40;;;;;;;;;;6210695;23;20024;-79
2021/01/07 03:40:11;;;;;;;9.27;6.25;;;;;;;;;;6211878;23;20024;-79
2021/01/07 03:42:37;;;;;;;8.88;5.95;;;;;;;;;;6213674;23;20056;-79
2021/01/07 03:45:03;;;;;;;8.63;6.35;;;;;;;;;;6213012;23;20020;-79
2021/01/07 03:47:29;;;;;;;8.70;6.07;;;;;;;;;;6214938;23;20456;-80
2021/01/07 03:49:58;;;;;;;7.60;5.95;;;;;;;;;;6214046;23;20048;-80
2021/01/07 03:52:24;;;;;;;8.20;5.77;;;;;;;;;;6213470;23;20099;-80
2021/01/07 03:54:51;;;;;;;7.32;5.82;;;;;;;;;;6213479;23;20404;-80
2021/01/07 03:57:17;;;;;;;9.95;6.75;;;;;;;;;;6212226;23;20023;-82
2021/01/07 03:59:43;;;;;;;6.63;5.72;;;;;;;;;;6213897;23;20412;-81
2021/01/07 04:02:10;;;;;;;8.70;5.63;;;;;;;;;;6214330;23;20017;-80
2021/01/07 04:04:36;;;;;;;8.75;6.30;;;;;;;;;;6212783;23;20411;-77
2021/01/07 04:07:04;;;;;;;7.45;5.82;;;;;;;;;;6213390;23;20144;-80
2021/01/07 04:09:31;;;;;;;8.75;6.10;;;;;;;;;;6213024;23;20030;-80
2021/01/07 04:11:57;;;;;;;7.10;5.35;;;;;;;;;;6214139;23;20029;-80
2021/01/07 04:14:23;;;;;;;8.32;6.07;;;;;;;;;;6213434;23;20020;-81
2021/01/07 04:16:52;;;;;;;11.80;6.05;;;;;;;;;;6212545;23;20021;-82
2021/01/07 04:19:18;;;;;;;7.13;5.50;;;;;;;;;;6213383;23;20115;-81
2021/01/07 04:21:47;;;;;;;6.63;5.45;;;;;;;;;;6213817;23;20047;-79
2021/01/07 04:24:14;;;;;;;7.03;4.95;;;;;;;;;;6213196;23;20392;-83
2021/01/07 04:26:41;;;;;;;6.93;5.32;;;;;;;;;;6212137;23;20100;-84
2021/01/07 04:29:07;;;;;;;7.60;5.57;;;;;;;;;;6213748;23;20095;-82
2021/01/07 04:31:34;;;;;;;7.45;5.30;;;;;;;;;;6212965;23;20082;-83
2021/01/07 04:34:00;;;;;;;8.45;5.95;;;;;;;;;;6212692;23;20400;-83
2021/01/07 04:36:27;;;;;;;8.65;5.55;;;;;;;;;;6213619;23;20347;-83
2021/01/07 04:38:53;;;;;;;7.38;5.13;;;;;;;;;;6212491;23;20103;-83
2021/01/07 04:41:19;;;;;;;7.15;5.68;;;;;;;;;;6212413;23;20028;-77
2021/01/07 04:43:45;;;;;;;7.70;5.15;;;;;;;;;;6214012;23;20017;-79
2021/01/07 04:46:12;;;;;;;7.78;5.15;;;;;;;;;;6212766;23;20020;-79
2021/01/07 04:48:39;;;;;;;7.57;4.90;;;;;;;;;;6213478;23;20020;-78
2021/01/07 04:51:05;;;;;;;6.72;4.97;;;;;;;;;;6213356;23;20564;-81
2021/01/07 04:53:31;;;;;;;7.97;5.13;;;;;;;;;;6213063;23;20052;-82
2021/01/07 04:55:58;;;;;;;6.57;4.85;;;;;;;;;;6211726;23;20020;-85
2021/01/07 04:58:24;;;;;;;7.07;4.97;;;;;;;;;;6212638;23;20023;-83
2021/01/07 05:00:50;;;;;;;6.97;5.05;;;;;;;;;;6212929;23;20024;-84
2021/01/07 05:03:20;;;;;;;13.57;5.10;;;;;;;;;;6213575;23;20398;-82
2021/01/07 05:05:46;;;;;;;;;;;;;;;;;;6213663;23;20180;-84
2021/01/07 05:08:16;;;;;;;6.20;4.40;;;;;;;;;;6212765;23;20240;-83
2021/01/07 05:10:42;;;;;;;;;;;;;;;;;;6212997;23;20108;-83
2021/01/07 05:13:08;;;;;;;5.78;3.88;;;;;;;;;;6212973;23;19916;-84
2021/01/07 05:15:40;;;;;;;6.88;4.47;;;;;;;;;;6212359;23;20024;-84
2021/01/07 05:18:07;;;;;;;6.47;4.85;;;;;;;;;;6212226;23;20032;-85
2021/01/07 05:20:33;;;;;;;6.00;4.40;;;;;;;;;;6212041;23;20020;-84
2021/01/07 05:23:00;;;;;;;6.25;4.55;;;;;;;;;;6213496;23;20044;-85
2021/01/07 05:25:29;;;;;;;6.93;4.70;;;;;;;;;;6212504;23;20100;-77
2021/01/07 05:28:03;;;;;;;6.00;4.73;;;;;;;;;;6213333;23;20523;-83
2021/01/07 05:30:29;;;;;;;6.55;4.13;;;;;;;;;;6213386;23;20292;-83
2021/01/07 05:33:06;;;;;;;5.85;4.60;;;;;;;;;;6213039;23;20044;-79
2021/01/07 05:35:33;;;;;;;6.10;4.07;;;;;;;;;;6211990;23;20103;-80
2021/01/07 05:38:00;;;;;;;6.22;4.47;;;;;;;;;;6186614;23;20031;-81
2021/01/07 05:40:26;;;;;;;6.97;4.68;;;;;;;;;;6213355;23;20108;-80
2021/01/07 05:42:56;;;;;;;7.07;5.28;;;;;;;;;;6212302;23;20027;-80
2021/01/07 05:45:23;;;;;;;6.22;4.68;;;;;;;;;;6212828;23;20480;-80
2021/01/07 05:47:50;;;;;;;5.57;4.13;;;;;;;;;;6212110;23;20496;-81
2021/01/07 05:50:18;;;;;;;5.43;4.05;;;;;;;;;;6212752;23;20376;-80
2021/01/07 05:52:45;;;;;;;5.82;3.90;;;;;;;;;;6212187;23;20353;-81
2021/01/07 05:55:12;;;;;;;4.85;3.63;;;;;;;;;;6212924;23;20075;-81
2021/01/07 05:57:39;;;;;;;5.85;4.32;;;;;;;;;;6212661;23;20099;-80
2021/01/07 06:00:06;;;;;;;5.30;3.63;;;;;;;;;;6212745;23;20094;-79
2021/01/07 06:02:35;;;;;;;5.55;4.07;;;;;;;;;;6213078;23;20096;-79
2021/01/07 06:05:02;;;;;;;5.40;3.65;;;;;;;;;;6212448;23;20031;-81
2021/01/07 06:07:28;;;;;;;5.43;3.72;;;;;;;;;;6211957;23;20017;-81
2021/01/07 06:09:59;;;;;;;4.80;3.55;;;;;;;;;;6212289;23;20021;-85
2021/01/07 06:12:26;;;;;;;4.82;3.50;;;;;;;;;;6212904;23;20400;-80
2021/01/07 06:14:52;;;;;;;6.20;3.88;;;;;;;;;;6212965;23;20516;-91
2021/01/07 06:17:23;;;;;;;5.60;4.20;;;;;;;;;;6212495;23;20063;-79
2021/01/07 06:19:52;;;;;;;4.97;3.33;;;;;;;;;;6211434;23;20039;-84
2021/01/07 06:22:19;;;;;;;5.15;3.58;;;;;;;;;;6212773;23;20024;-84
2021/01/07 06:24:49;;;;;;;5.05;3.30;;;;;;;;;;6213021;23;20394;-91
2021/01/07 06:27:21;;;;;;;5.57;3.78;;;;;;;;;;6211541;23;20027;-91
2021/01/07 06:29:48;;;;;;;5.25;3.38;;;;;;;;;;6212872;23;20104;-84
2021/01/07 06:32:17;;;;;;;5.35;3.80;;;;;;;;;;6210793;23;20024;-78
2021/01/07 06:34:48;;;;;;;6.60;3.60;;;;;;;;;;6210882;23;20020;-77
2021/01/07 06:37:28;;;;;;;5.95;3.80;;;;;;;;;;6211886;23;20017;-77
2021/01/07 06:39:55;;;;;;;4.90;3.42;;;;;;;;;;6213100;23;20108;-78
2021/01/07 06:42:22;;;;;;;4.13;3.08;;;;;;;;;;6212884;23;20095;-77
2021/01/07 06:44:48;;;;;;;5.25;3.33;;;;;;;;;;6214088;23;20109;-77
2021/01/07 06:47:18;;;;;;;6.03;3.15;;;;;;;;;;6211758;23;20055;-81
2021/01/07 06:49:44;;;;;;;5.47;2.53;;;;;;;;;;6213835;23;20051;-79
2021/01/07 06:52:11;;;;;;;4.22;2.63;;;;;;;;;;6213900;23;20016;-73
2021/01/07 06:54:42;;;;;;;4.68;3.13;;;;;;;;;;6211988;23;20107;-72
2021/01/07 06:57:09;;;;;;;7.28;3.15;;;;;;;;;;6213382;23;20087;-71
2021/01/07 06:59:56;;;;;;;5.05;3.17;;;;;;;;;;6212357;23;20059;-71
2021/01/07 07:02:23;;;;;;;3.55;2.67;;;;;;;;;;6212271;23;20028;-71
2021/01/07 07:04:58;;;;;;;11.80;3.20;;;;;;;;;;6212733;23;20021;-80
2021/01/07 07:07:49;;;;;;;8.32;3.75;;;;;;;;;;6213442;23;20360;-79
2021/01/07 07:10:18;;;;;;;5.38;2.58;;;;;;;;;;6212798;23;20056;-81
2021/01/07 07:12:48;;;;;;;10.82;3.00;;;;;;;;;;6212802;23;20157;-79
2021/01/07 07:15:14;;;;;;;;;;;;;;;;;;6213767;23;20092;-73
2021/01/07 07:17:41;;;;;;;4.72;2.38;;;;;;;;;;6209261;23;20722;-73
2021/01/07 07:20:07;;;;;;;4.75;3.38;;;;;;;;;;6210975;23;20518;-73
2021/01/07 07:22:43;;;;;;;9.73;3.03;;;;;;;;;;6212210;23;20495;-74
2021/01/07 07:25:12;;;;;;;7.38;3.60;;;;;;;;;;6211877;23;20078;-75
2021/01/07 07:27:52;;;;;;;14.00;5.30;;;;;;;;;;6211589;23;20020;-73
2021/01/07 07:30:28;;;;;;;19.85;4.82;;;;;;;;;;6211209;23;20119;-73
2021/01/07 07:32:56;;;;;;;9.68;4.25;;;;;;;;;;6211561;23;20032;-73
2021/01/07 07:35:23;;;;;;;10.18;4.55;;;;;;;;;;6209802;23;20104;-73
2021/01/07 07:37:50;;;;;;;11.77;4.30;;;;;;;;;;6210430;23;20104;-74
2021/01/07 07:40:36;;;;;;;9.05;4.65;;;;;;;;;;6211906;23;20056;-74
2021/01/07 07:43:03;;;;;;;9.57;4.18;;;;;;;;;;6210097;23;20500;-74
2021/01/07 07:45:34;;;;;;;11.82;4.72;;;;;;;;;;6210385;23;20070;-74
2021/01/07 07:48:00;;;;;;;11.38;4.78;;;;;;;;;;6210530;23;20016;-73
2021/01/07 07:50:28;;;;;;;19.95;5.43;;;;;;;;;;6210554;23;20099;-77
2021/01/07 07:53:04;;;;;;;10.75;6.38;;;;;;;;;;6209270;23;20021;-71
2021/01/07 07:55:41;;;;;;;18.88;6.20;;;;;;;;;;6211939;23;20029;-74
2021/01/07 07:58:11;;;;;;;14.52;6.60;;;;;;;;;;6211609;23;20024;-72
2021/01/07 08:00:38;;;;;;;14.77;7.50;;;;;;;;;;6211353;23;20030;-80
2021/01/07 08:03:08;;;;;;;22.08;7.82;;;;;;;;;;6211378;23;20063;-75
2021/01/07 08:05:35;;;;;;;20.73;8.67;;;;;;;;;;6211796;23;20536;-73
2021/01/07 08:08:01;;;;;;;20.05;9.02;;;;;;;;;;6185680;23;20099;-74
2021/01/07 08:10:27;;;;;;;13.80;7.93;;;;;;;;;;6213181;23;20349;-73
2021/01/07 08:12:57;;;;;;;23.83;8.93;;;;;;;;;;6213602;23;20349;-74
2021/01/07 08:15:32;;;;;;;26.92;9.50;;;;;;;;;;6212213;23;20154;-73
2021/01/07 08:18:14;;;;;;;16.70;8.60;;;;;;;;;;6213764;23;20099;-74
2021/01/07 08:20:41;;;;;;;18.95;7.85;;;;;;;;;;6213013;23;20318;-74
2021/01/07 08:23:09;;;;;;;18.95;8.63;;;;;;;;;;6213236;23;20017;-73
2021/01/07 08:25:35;;;;;;;23.52;8.07;;;;;;;;;;6213722;23;20099;-73
2021/01/07 08:28:12;;;;;;;13.00;7.40;;;;;;;;;;6213401;23;20461;-74
2021/01/07 08:30:42;;;;;;;16.23;7.45;;;;;;;;;;6211639;23;20103;-72
2021/01/07 08:33:12;;;;;;;15.95;7.45;;;;;;;;;;6186547;23;20023;-72
2021/01/07 08:35:38;;;;;;;14.88;7.00;;;;;;;;;;6213695;23;20120;-74
2021/01/07 08:38:04;;;;;;;14.52;6.97;;;;;;;;;;6212769;23;20059;-75
2021/01/07 08:40:31;;;;;;;15.18;6.72;;;;;;;;;;6213164;23;20024;-75
2021/01/07 08:43:09;;;;;;;14.98;7.57;;;;;;;;;;6212782;23;20524;-75
2021/01/07 08:45:40;;;;;;;14.63;6.85;;;;;;;;;;6213263;23;20025;-74
2021/01/07 08:48:07;;;;;;;9.90;6.93;;;;;;;;;;6213796;23;20021;-74
2021/01/07 08:50:34;;;;;;;14.02;8.07;;;;;;;;;;6213198;23;20016;-75
2021/01/07 08:53:06;;;;;;;13.52;7.97;;;;;;;;;;6213092;23;20348;-74
2021/01/07 08:55:49;;;;;;;14.55;5.90;;;;;;;;;;6212558;23;20023;-74
2021/01/07 08:58:25;;;;;;;12.65;7.40;;;;;;;;;;6212883;23;20028;-74
2021/01/07 09:00:52;;;;;;;10.88;6.53;;;;;;;;;;6212451;23;20021;-75
2021/01/07 09:03:19;;;;;;;9.20;6.15;;;;;;;;;;6212860;23;20020;-75
2021/01/07 09:05:45;;;;;;;9.27;6.35;;;;;;;;;;6212245;23;20107;-75
2021/01/07 09:08:12;;;;;;;9.95;6.03;;;;;;;;;;6213025;23;20023;-74
2021/01/07 09:10:39;;;;;;;12.85;6.20;;;;;;;;;;6210195;23;20100;-74
2021/01/07 09:13:22;;;;;;;10.57;6.45;;;;;;;;;;6212605;23;20076;-74
2021/01/07 09:15:49;;;;;;;11.48;6.15;;;;;;;;;;6212083;23;20107;-74
2021/01/07 09:18:18;;;;;;;10.90;5.75;;;;;;;;;;6212643;23;20104;-74
2021/01/07 09:20:45;;;;;;;11.77;5.75;;;;;;;;;;6182900;23;20021;-70
2021/01/07 09:23:16;;;;;;;9.82;6.13;;;;;;;;;;6211817;23;20024;-70
2021/01/07 09:25:42;;;;;;;9.50;5.00;;;;;;;;;;6186180;23;20074;-70
2021/01/07 09:28:09;;;;;;;7.72;4.60;;;;;;;;;;6211738;23;20096;-70
2021/01/07 09:30:36;;;;;;;7.78;4.53;;;;;;;;;;6212329;23;20024;-71
2021/01/07 09:33:02;;;;;;;9.35;4.82;;;;;;;;;;6212606;23;20071;-71
2021/01/07 09:35:28;;;;;;;7.40;4.72;;;;;;;;;;6211837;23;20020;-70
2021/01/07 09:37:59;;;;;;;7.43;4.72;;;;;;;;;;6212657;23;20112;-71
2021/01/07 09:40:26;;;;;;;8.48;4.72;;;;;;;;;;6212107;23;20507;-70
2021/01/07 09:42:52;;;;;;;8.02;4.75;;;;;;;;;;6212477;23;20108;-71
2021/01/07 09:45:18;;;;;;;7.72;4.68;;;;;;;;;;6212088;23;20111;-71
2021/01/07 09:47:44;;;;;;;6.20;4.47;;;;;;;;;;6212417;23;20486;-70
2021/01/07 09:50:12;;;;;;;6.38;3.70;;;;;;;;;;6212252;23;20024;-70
2021/01/07 09:52:38;;;;;;;5.93;3.92;;;;;;;;;;6212395;23;20119;-70
2021/01/07 09:55:05;;;;;;;9.02;4.78;;;;;;;;;;6211361;23;20377;-70
2021/01/07 09:57:32;;;;;;;6.70;4.88;;;;;;;;;;6212049;23;20044;-70
2021/01/07 10:00:01;;;;;;;5.70;3.60;;;;;;;;;;6212208;23;20048;-70
2021/01/07 10:02:27;;;;;;;7.78;4.60;;;;;;;;;;6213315;23;20403;-70
2021/01/07 10:04:53;;;;;;;5.53;3.60;;;;;;;;;;6212771;23;20107;-70
2021/01/07 10:07:19;;;;;;;8.13;4.10;;;;;;;;;;6212292;23;20020;-71
2021/01/07 10:09:45;;;;;;;8.07;3.83;;;;;;;;;;6212458;23;20027;-71
2021/01/07 10:12:11;;;;;;;5.43;3.70;;;;;;;;;;6212526;23;20031;-71
2021/01/07 10:14:37;;;;;;;6.95;4.18;;;;;;;;;;6212405;23;20024;-70
2021/01/07 10:17:08;;;;;;;7.05;4.45;;;;;;;;;;6213182;23;20075;-71
2021/01/07 10:19:35;;;;;;;6.13;3.38;;;;;;;;;;6213646;23;20020;-71
2021/01/07 10:22:05;;;;;;;5.85;4.22;;;;;;;;;;6210342;23;20031;-71
2021/01/07 10:24:41;;;;;;;6.75;3.90;;;;;;;;;;6211293;23;20071;-70
2021/01/07 10:27:09;;;;;;;6.47;3.35;;;;;;;;;;6213193;23;20020;-70
2021/01/07 10:29:36;;;;;;;6.38;3.85;;;;;;;;;;6214233;23;20336;-70
2021/01/07 10:32:09;;;;;;;5.53;3.28;;;;;;;;;;6214470;23;20020;-69
2021/01/07 10:34:41;;;;;;;4.85;3.42;;;;;;;;;;6213897;23;20020;-71
2021/01/07 10:37:11;;;;;;;5.90;3.72;;;;;;;;;;6214060;23;20048;-71
2021/01/07 10:39:40;;;;;;;6.57;3.70;;;;;;;;;;6213466;23;20028;-72
2021/01/07 10:42:08;;;;;;;5.72;3.88;;;;;;;;;;6213319;23;20021;-68
2021/01/07 10:44:35;;;;;;;5.63;3.95;;;;;;;;;;6213935;23;20016;-70
2021/01/07 10:47:02;;;;;;;7.15;3.72;;;;;;;;;;6214036;23;20099;-71
2021/01/07 10:49:29;;;;;;;6.18;4.45;;;;;;;;;;6213755;23;20070;-71
2021/01/07 10:51:55;;;;;;;7.18;4.15;;;;;;;;;;6213501;23;20025;-70
2021/01/07 10:54:42;;;;;;;5.97;3.72;;;;;;;;;;6214207;23;20449;-70
2021/01/07 10:57:13;;;;;;;7.15;3.88;;;;;;;;;;6213837;23;20020;-70
2021/01/07 11:00:01;;;;;;;7.18;3.53;;;;;;;;;;6213413;23;20034;-71
2021/01/07 11:02:43;;;;;;;7.57;3.97;;;;;;;;;;6213738;23;20032;-71
2021/01/07 11:05:13;;;;;;;5.47;3.72;;;;;;;;;;6214196;23;20063;-70
2021/01/07 11:07:39;;;;;;;7.60;4.15;;;;;;;;;;6214256;23;20025;-71
2021/01/07 11:10:06;;;;;;;6.25;3.58;;;;;;;;;;6213572;23;20029;-71
2021/01/07 11:12:53;;;;;;;5.50;3.30;;;;;;;;;;6213135;23;20127;-70
2021/01/07 11:15:23;;;;;;;5.32;3.30;;;;;;;;;;6213887;23;20407;-70
2021/01/07 11:18:11;;;;;;;6.70;3.70;;;;;;;;;;6208641;23;20024;-70
2021/01/07 11:20:41;;;;;;;5.18;3.58;;;;;;;;;;6185811;23;20028;-71
2021/01/07 11:23:08;;;;;;;5.80;3.80;;;;;;;;;;6186146;23;20091;-71
2021/01/07 11:25:35;;;;;;;6.10;3.55;;;;;;;;;;6213161;23;20340;-70
2021/01/07 11:28:02;;;;;;;6.15;3.33;;;;;;;;;;6212665;23;20021;-70
2021/01/07 11:30:31;;;;;;;6.15;4.00;;;;;;;;;;6213055;23;20095;-70
2021/01/07 11:33:00;;;;;;;6.18;3.92;;;;;;;;;;6213192;23;20479;-71
2021/01/07 11:35:26;;;;;;;4.90;3.38;;;;;;;;;;6213082;23;20027;-70
2021/01/07 11:38:03;;;;;;;7.50;3.80;;;;;;;;;;6212750;23;20075;-70
2021/01/07 11:40:43;;;;;;;5.07;3.75;;;;;;;;;;6212520;23;20105;-70
2021/01/07 11:43:41;;;;;;;5.10;3.38;;;;;;;;;;6213348;23;20020;-70
2021/01/07 11:46:12;;;;;;;5.90;3.28;;;;;;;;;;6131407;23;20024;-70
2021/01/07 11:48:42;;;;;;;4.35;3.17;;;;;;;;;;6212712;23;20041;-70
2021/01/07 11:51:10;;;;;;;3.60;2.90;;;;;;;;;;6186716;23;20024;-70
2021/01/07 11:53:37;;;;;;;10.23;3.90;;;;;;;;;;6212864;23;20024;-70
2021/01/07 11:56:03;;;;;;;4.85;3.47;;;;;;;;;;6212650;23;20099;-70
2021/01/07 11:58:30;;;;;;;3.95;2.80;;;;;;;;;;6213059;23;20103;-70
2021/01/07 12:01:02;;;;;;;4.38;3.10;;;;;;;;;;6212921;23;20479;-70
2021/01/07 12:03:32;;;;;;;4.82;3.10;;;;;;;;;;6212916;23;20021;-70
2021/01/07 12:06:05;;;;;;;4.03;3.10;;;;;;;;;;6213116;23;20030;-71
2021/01/07 12:08:43;;;;;;;5.20;3.10;;;;;;;;;;6212648;23;20017;-70
2021/01/07 12:11:18;;;;;;;6.13;3.55;;;;;;;;;;6212721;23;20028;-70
2021/01/07 12:13:48;;;;;;;6.00;3.63;;;;;;;;;;6213052;23;20095;-70
2021/01/07 12:16:22;;;;;;;4.65;3.00;;;;;;;;;;6212798;23;20020;-71
2021/01/07 12:18:50;;;;;;;5.65;3.22;;;;;;;;;;6210687;23;20498;-70
2021/01/07 12:21:18;;;;;;;5.38;3.08;;;;;;;;;;6211867;23;20112;-70
2021/01/07 12:23:45;;;;;;;4.90;2.80;;;;;;;;;;6212862;23;20522;-70
2021/01/07 12:26:11;;;;;;;4.30;2.88;;;;;;;;;;6212933;23;20027;-70
2021/01/07 12:28:38;;;;;;;4.80;3.20;;;;;;;;;;6213103;23;20099;-71
2021/01/07 12:31:05;;;;;;;5.68;3.47;;;;;;;;;;6213114;23;20068;-71
2021/01/07 12:33:38;;;;;;;4.35;2.78;;;;;;;;;;6213154;23;20071;-70
2021/01/07 12:36:04;;;;;;;4.50;3.15;;;;;;;;;;6213063;23;20020;-70
2021/01/07 12:38:48;;;;;;;4.28;2.97;;;;;;;;;;6212732;23;20024;-69
2021/01/07 12:41:17;;;;;;;5.03;2.90;;;;;;;;;;6212623;23;20103;-70
2021/01/07 12:43:45;;;;;;;5.43;3.47;;;;;;;;;;6213171;23;20095;-71
2021/01/07 12:46:14;;;;;;;6.35;3.67;;;;;;;;;;6213233;23;20099;-71
2021/01/07 12:48:42;;;;;;;4.90;3.20;;;;;;;;;;6212669;23;20021;-70
2021/01/07 12:51:12;;;;;;;5.78;2.75;;;;;;;;;;6213341;23;20043;-71
2021/01/07 12:53:38;;;;;;;5.65;3.08;;;;;;;;;;6212857;23;20048;-70
2021/01/07 12:56:06;;;;;;;5.45;2.80;;;;;;;;;;6212772;23;20104;-70
2021/01/07 12:58:36;;;;;;;5.65;3.47;;;;;;;;;;6212754;23;20095;-70
2021/01/07 13:01:04;;;;;;;4.35;2.88;;;;;;;;;;6213336;23;20056;-71
2021/01/07 13:03:37;;;;;;;5.85;3.30;;;;;;;;;;6212744;23;20023;-70
2021/01/07 13:06:12;;;;;;;5.43;3.83;;;;;;;;;;6212963;23;20056;-70
2021/01/07 13:08:40;;;;;;;4.97;3.30;;;;;;;;;;6212929;23;20099;-70
2021/01/07 13:11:07;;;;;;;5.93;2.85;;;;;;;;;;6212626;23;20020;-69
2021/01/07 13:13:44;;;;;;;4.50;2.78;;;;;;;;;;6212481;23;20064;-69
2021/01/07 13:16:10;;;;;;;5.35;2.97;;;;;;;;;;6212866;23;20756;-69
2021/01/07 13:18:36;;;;;;;5.03;3.08;;;;;;;;;;6212745;23;20096;-69
2021/01/07 13:21:02;;;;;;;5.88;3.47;;;;;;;;;;6212384;23;20020;-69
2021/01/07 13:23:30;;;;;;;4.88;2.53;;;;;;;;;;6212901;23;20021;-70
2021/01/07 13:25:56;;;;;;;5.47;3.00;;;;;;;;;;6212953;23;20498;-69
2021/01/07 13:28:22;;;;;;;4.95;3.25;;;;;;;;;;6212480;23;20538;-70
2021/01/07 13:30:49;;;;;;;5.05;3.05;;;;;;;;;;6211871;23;20099;-70
2021/01/07 13:33:17;;;;;;;5.70;3.45;;;;;;;;;;6211987;23;20024;-69
2021/01/07 13:35:43;;;;;;;4.35;2.80;;;;;;;;;;6211126;23;20096;-70
2021/01/07 13:38:10;;;;;;;5.40;3.45;;;;;;;;;;6211445;23;20021;-71
2021/01/07 13:40:37;;;;;;;3.65;2.75;;;;;;;;;;6211975;23;20035;-71
2021/01/07 13:43:04;;;;;;;3.65;2.67;;;;;;;;;;6211602;23;20064;-71
2021/01/07 13:45:33;;;;;;;3.97;2.67;;;;;;;;;;6212037;23;20482;-71
2021/01/07 13:48:01;;;;;;;4.47;3.00;;;;;;;;;;6211985;23;20468;-71
2021/01/07 13:50:28;;;;;;;4.55;2.85;;;;;;;;;;6212292;23;20406;-71
2021/01/07 13:53:01;;;;;;;3.80;2.55;;;;;;;;;;6214789;23;20519;-69
2021/01/07 13:55:28;;;;;;;4.22;2.53;;;;;;;;;;6214603;23;20060;-71
2021/01/07 13:57:57;;;;;;;5.93;3.08;;;;;;;;;;6214764;23;20467;-71
2021/01/07 14:00:43;;;;;;;4.43;2.42;;;;;;;;;;6214265;23;20052;-72
2021/01/07 14:03:10;;;;;;;3.70;2.60;;;;;;;;;;6214329;23;20108;-70
2021/01/07 14:05:37;;;;;;;3.50;2.63;;;;;;;;;;6214245;23;20091;-71
2021/01/07 14:08:09;;;;;;;4.93;2.50;;;;;;;;;;6214435;23;20027;-71
2021/01/07 14:10:38;;;;;;;5.45;2.67;;;;;;;;;;6215104;23;20043;-70
2021/01/07 14:13:05;;;;;;;4.35;3.03;;;;;;;;;;6212815;23;20023;-70
2021/01/07 14:15:32;;;;;;;3.90;2.50;;;;;;;;;;6214773;23;20017;-70
2021/01/07 14:18:01;;;;;;;4.07;3.03;;;;;;;;;;6213257;23;20025;-70
2021/01/07 14:20:27;;;;;;;4.05;2.75;;;;;;;;;;6212867;23;20031;-71
2021/01/07 14:22:53;;;;;;;4.18;2.42;;;;;;;;;;6214189;23;20096;-70
2021/01/07 14:25:25;;;;;;;5.13;2.92;;;;;;;;;;6214108;23;20031;-70
2021/01/07 14:27:52;;;;;;;4.72;2.85;;;;;;;;;;6213479;23;20104;-71
2021/01/07 14:30:19;;;;;;;3.47;2.42;;;;;;;;;;6214489;23;20055;-72
2021/01/07 14:32:47;;;;;;;4.60;2.42;;;;;;;;;;6213189;23;20028;-70
2021/01/07 14:35:17;;;;;;;3.88;2.20;;;;;;;;;;6213397;23;20096;-71
2021/01/07 14:37:44;;;;;;;4.35;2.45;;;;;;;;;;6186918;23;20486;-70
2021/01/07 14:40:14;;;;;;;3.35;1.95;;;;;;;;;;6213809;23;20095;-70
2021/01/07 14:42:41;;;;;;;3.95;2.38;;;;;;;;;;6213521;23;20024;-71
2021/01/07 14:45:07;;;;;;;4.05;2.42;;;;;;;;;;6213949;23;20017;-70
2021/01/07 14:47:34;;;;;;;3.88;2.40;;;;;;;;;;6213948;23;20063;-70